Time;durP1;ratioP1;P1;durP2;ratioP2;P2;SDS_P1;SDS_P2;PMS_P1;PMS_P2;Temp;Humidity;BMP_temperature;BMP_pressure;BME280_temperature;BME280_humidity;BME280_pressure;Samples;Min_cycle;Max_cycle;Signal;HPM_P1;HPM_P2
2022/05/03 00:02:29;;;;;;;;;38.00;29.00;;;;;13.30;55.68;101456.97;5049215;28;45438;-72
2022/05/03 00:05:08;;;;;;;;;42.25;34.75;;;;;13.29;55.41;101449.19;5048247;28;45478;-72
2022/05/03 00:07:55;;;;;;;;;37.75;34.25;;;;;13.27;55.27;101443.16;5049866;28;45253;-71
2022/05/03 00:10:28;;;;;;;;;47.50;36.00;;;;;13.24;55.29;101451.94;5050387;28;45521;-72
2022/05/03 00:13:00;;;;;;;;;40.25;33.25;;;;;13.24;55.79;101443.25;5048966;28;45439;-72
2022/05/03 00:15:27;;;;;;;;;37.00;32.25;;;;;13.22;55.86;101440.69;5051764;28;45303;-71
2022/05/03 00:17:53;;;;;;;;;39.00;33.00;;;;;13.20;56.15;101441.59;5049537;28;45440;-71
2022/05/03 00:20:21;;;;;;;;;45.50;37.25;;;;;13.19;55.69;101437.28;5046731;28;45497;-70
2022/05/03 00:22:46;;;;;;;;;45.50;36.25;;;;;13.19;56.02;101438.13;5047869;28;45346;-71
2022/05/03 00:25:12;;;;;;;;;38.25;32.25;;;;;13.16;55.88;101432.97;5049951;28;45268;-70
2022/05/03 00:27:38;;;;;;;;;43.75;34.50;;;;;13.16;55.51;101434.72;5048985;28;45293;-71
2022/05/03 00:30:04;;;;;;;;;41.75;34.50;;;;;13.13;56.04;101430.44;5049498;28;45470;-70
2022/05/03 00:32:31;;;;;;;;;43.50;34.25;;;;;13.07;56.38;101428.84;5049227;28;45394;-70
2022/05/03 00:35:00;;;;;;;;;40.00;31.75;;;;;13.06;55.82;101427.16;5049133;28;45462;-73
2022/05/03 00:37:25;;;;;;;;;43.75;34.00;;;;;13.04;56.02;101423.72;5051096;28;45471;-71
2022/05/03 00:39:50;;;;;;;;;45.50;35.50;;;;;13.04;55.82;101425.47;5049290;28;45492;-74
2022/05/03 00:42:25;;;;;;;;;46.50;36.50;;;;;13.01;56.44;101430.75;5047071;28;45346;-73
2022/05/03 00:45:04;;;;;;;;;46.25;33.75;;;;;12.97;55.60;101416.94;5041508;28;45389;-71
2022/05/03 00:47:48;;;;;;;;;45.00;35.75;;;;;12.93;56.74;101428.34;5037747;28;45740;-71
2022/05/03 00:50:28;;;;;;;;;41.00;34.00;;;;;12.90;56.52;101424.97;5037349;28;46537;-72
2022/05/03 00:52:59;;;;;;;;;44.00;34.25;;;;;12.86;56.61;101419.00;5036074;28;46065;-72
2022/05/03 00:56:08;;;;;;;;;40.00;34.00;;;;;12.83;56.36;101420.81;5037615;28;45371;-71
2022/05/03 00:58:55;;;;;;;;;39.25;31.50;;;;;12.78;57.77;101427.00;5038911;28;45733;-71
2022/05/03 01:01:32;;;;;;;;;42.75;33.50;;;;;12.72;56.49;101423.69;5046749;28;45545;-70
2022/05/03 01:04:25;;;;;;;;;42.75;28.00;;;;;12.69;56.79;101415.94;5046063;28;45657;-73
2022/05/03 01:06:59;;;;;;;;;40.00;34.00;;;;;12.65;57.34;101420.41;5045618;28;45659;-73
2022/05/03 01:09:40;;;;;;;;;44.25;35.00;;;;;12.62;57.15;101424.84;5050987;28;45794;-74
2022/05/03 01:12:38;;;;;;;;;38.75;34.25;;;;;12.61;56.85;101428.31;5039802;28;46235;-73
2022/05/03 01:15:10;;;;;;;;;39.50;35.25;;;;;12.59;56.90;101425.75;5040374;28;45548;-74
2022/05/03 01:18:14;;;;;;;;;37.75;26.75;;;;;12.57;56.70;101424.06;5041027;28;45560;-74
2022/05/03 01:20:50;;;;;;;;;39.75;34.00;;;;;12.56;56.51;101417.16;5032795;28;45356;-71
2022/05/03 01:23:34;;;;;;;;;40.50;32.00;;;;;12.54;57.78;101421.53;5039804;28;46215;-72
2022/05/03 01:26:41;;;;;;;;;37.50;30.25;;;;;12.49;56.46;101427.72;5040510;28;46025;-72
2022/05/03 01:29:25;;;;;;;;;39.75;34.75;;;;;12.46;57.82;101416.53;5038179;28;45585;-72
2022/05/03 01:32:08;;;;;;;;;38.75;33.00;;;;;12.40;56.42;101409.69;5039310;28;45468;-72
2022/05/03 01:34:35;;;;;;;;;40.50;36.50;;;;;12.39;56.97;101412.34;5039524;28;45335;-72
2022/05/03 01:37:00;;;;;;;;;44.00;35.75;;;;;12.40;57.16;101419.25;5040453;28;45440;-72
2022/05/03 01:39:25;;;;;;;;;47.50;35.00;;;;;12.36;58.32;101415.03;5040764;28;45268;-72
2022/05/03 01:42:00;;;;;;;;;43.67;34.00;;;;;12.34;56.84;101415.06;5039060;28;45509;-72
2022/05/03 01:44:38;;;;;;;;;35.50;30.50;;;;;12.31;57.10;101407.31;5040247;28;45491;-72
2022/05/03 01:47:15;;;;;;;;;43.50;32.00;;;;;12.30;57.46;101413.44;5041425;28;45310;-73
2022/05/03 01:52:49;;;;;;;;;39.75;31.00;;;;;12.17;59.43;101396.34;5041573;28;45457;-73
2022/05/03 01:55:30;;;;;;;;;45.00;36.75;;;;;12.14;57.65;101404.25;5041562;28;45578;-73
2022/05/03 01:58:35;;;;;;;;;41.25;33.75;;;;;12.08;57.71;101396.59;5040516;28;45881;-73
2022/05/03 02:01:13;;;;;;;;;39.75;32.00;;;;;12.10;57.48;101395.66;5032107;28;45324;-73
2022/05/03 02:03:44;;;;;;;;;34.50;33.75;;;;;12.02;58.08;101391.53;5040138;28;45321;-74
2022/05/03 02:06:12;;;;;;;;;47.25;33.75;;;;;11.96;58.06;101391.66;5039920;28;45301;-74
2022/05/03 02:08:53;;;;;;;;;45.25;32.75;;;;;11.93;58.95;101396.94;5040082;28;45652;-74
2022/05/03 02:11:27;;;;;;;;;37.50;31.75;;;;;11.88;58.96;101395.28;5053707;28;45476;-75
2022/05/03 02:17:03;;;;;;;;;30.75;27.00;;;;;11.78;61.15;101392.88;5039071;28;45771;-74
2022/05/03 02:19:44;;;;;;;;;30.75;30.75;;;;;11.74;60.21;101389.50;5039671;28;45419;-72
2022/05/03 02:22:31;;;;;;;;;26.25;24.75;;;;;11.73;59.82;101384.31;5040301;28;45316;-72
2022/05/03 02:25:07;;;;;;;;;37.50;32.25;;;;;11.66;61.22;101401.81;5039581;28;45166;-70
2022/05/03 02:27:35;;;;;;;;;41.00;30.00;;;;;11.64;61.49;101400.16;5039690;28;46371;-69
2022/05/03 02:30:02;;;;;;;;;40.50;30.50;;;;;11.63;60.46;101408.84;5039994;28;45740;-70
2022/05/03 02:32:50;;;;;;;;;37.50;34.00;;;;;11.62;61.85;101405.38;5039583;28;45277;-70
2022/05/03 02:35:24;;;;;;;;;40.75;32.75;;;;;11.58;61.87;101407.19;5037229;28;45356;-70
2022/05/03 02:37:53;;;;;;;;;37.75;30.75;;;;;11.58;60.96;101407.19;5039094;28;46260;-69
2022/05/03 02:40:22;;;;;;;;;43.75;34.00;;;;;11.62;61.39;101407.13;5039690;28;45416;-69
2022/05/03 02:42:51;;;;;;;;;35.25;29.50;;;;;11.63;60.58;101401.03;5039264;28;45399;-68
2022/05/03 02:45:18;;;;;;;;;48.75;37.50;;;;;11.67;60.79;101408.75;5039659;28;45209;-69
2022/05/03 02:47:43;;;;;;;;;47.75;36.75;;;;;11.71;60.79;101409.53;5045286;28;45503;-69
2022/05/03 02:50:17;;;;;;;;;51.67;33.33;;;;;11.75;59.91;101403.38;5038825;28;45374;-73
2022/05/03 02:52:54;;;;;;;;;40.00;32.75;;;;;11.77;61.16;101410.25;5040398;28;45393;-71
2022/05/03 02:55:21;;;;;;;;;33.00;31.25;;;;;11.79;59.80;101408.50;5039133;28;45532;-72
2022/05/03 02:58:06;;;;;;;;;39.75;35.50;;;;;11.78;60.35;101404.19;5039202;28;45323;-73
2022/05/03 03:03:44;;;;;;;;;38.25;31.25;;;;;11.82;59.65;101399.78;5051567;28;45308;-73
2022/05/03 03:06:20;;;;;;;;;48.50;38.25;;;;;11.80;59.51;101407.59;5039188;28;45336;-74
2022/05/03 03:08:47;;;;;;;;;41.00;30.25;;;;;11.81;59.74;101400.66;5026400;28;45568;-74
2022/05/03 03:11:24;;;;;;;;;48.75;38.50;;;;;11.85;60.05;101410.13;5039609;28;45814;-74
2022/05/03 03:14:20;;;;;;;;;46.50;35.25;;;;;11.86;60.33;101410.09;5027835;28;45323;-74
2022/05/03 03:17:00;;;;;;;;;49.25;35.25;;;;;11.82;60.91;101400.66;5038840;28;45252;-73
2022/05/03 03:19:48;;;;;;;;;38.25;32.00;;;;;11.85;60.04;101405.78;5038931;28;45657;-73
2022/05/03 03:22:14;;;;;;;;;51.00;39.50;;;;;11.82;59.94;101403.25;5039231;28;45182;-73
2022/05/03 03:24:40;;;;;;;;;40.00;35.00;;;;;11.84;59.74;101400.59;5039172;28;45266;-73
2022/05/03 03:27:09;;;;;;;;;40.75;34.00;;;;;11.84;60.19;101400.59;5037773;28;45484;-72
2022/05/03 03:29:37;;;;;;;;;41.00;34.25;;;;;11.84;60.79;101404.06;5038739;28;46242;-73
2022/05/03 03:32:05;;;;;;;;;48.75;34.75;;;;;11.88;60.13;101400.50;5038977;28;45401;-75
2022/05/03 03:34:32;;;;;;;;;50.25;37.75;;;;;11.88;59.44;101395.28;5038759;28;45413;-74
2022/05/03 03:37:02;;;;;;;;;47.25;38.25;;;;;11.84;60.91;101400.59;5039034;28;45352;-71
2022/05/03 03:39:30;;;;;;;;;47.75;36.50;;;;;11.86;60.05;101397.06;5038116;28;45480;-71
2022/05/03 03:41:58;;;;;;;;;41.75;36.25;;;;;11.85;60.31;101397.09;5039875;28;45845;-71
2022/05/03 03:44:24;;;;;;;;;51.50;36.50;;;;;11.81;60.48;101391.13;5038813;28;45442;-72
2022/05/03 03:46:50;;;;;;;;;52.50;39.25;;;;;11.84;60.04;101398.84;5038832;28;45458;-73
2022/05/03 03:49:15;;;;;;;;;36.75;31.75;;;;;11.78;60.89;101391.16;5044265;28;45414;-71
2022/05/03 03:51:42;;;;;;;;;49.00;35.25;;;;;11.78;60.46;101391.16;5038829;28;45394;-72
2022/05/03 03:54:08;;;;;;;;;44.75;32.50;;;;;11.81;60.06;101392.84;5037410;28;45294;-71
2022/05/03 03:56:34;;;;;;;;;44.50;36.25;;;;;11.84;59.81;101391.03;5051165;28;45308;-71
2022/05/03 03:59:02;;;;;;;;;40.75;36.00;;;;;11.86;60.49;101391.00;5037295;28;46961;-71
2022/05/03 04:01:27;;;;;;;;;41.75;35.00;;;;;11.84;60.10;101393.66;5038318;28;45280;-71
2022/05/03 04:03:53;;;;;;;;;43.25;36.00;;;;;11.82;59.93;101387.63;5038610;28;45414;-72
2022/05/03 04:06:18;;;;;;;;;51.50;38.00;;;;;11.84;60.16;101392.78;5050544;28;45863;-71
2022/05/03 04:08:43;;;;;;;;;44.25;38.00;;;;;11.80;60.62;101386.78;5038553;28;46169;-70
2022/05/03 04:11:16;;;;;;;;;53.75;38.25;;;;;11.77;60.29;101393.78;5038724;28;45258;-71
2022/05/03 04:13:43;;;;;;;;;43.25;35.00;;;;;11.77;60.11;101394.63;5038372;28;45271;-72
2022/05/03 04:16:09;;;;;;;;;49.75;37.25;;;;;11.71;61.03;101394.75;5039732;28;45349;-71
2022/05/03 04:18:47;;;;;;;;;53.75;38.25;;;;;11.67;60.85;101394.88;5041931;28;45370;-71
2022/05/03 04:21:16;;;;;;;;;43.25;36.00;;;;;11.61;61.23;101403.66;5041766;28;45346;-71
2022/05/03 04:23:45;;;;;;;;;50.00;37.50;;;;;11.56;61.53;101401.16;5042254;28;45232;-71
2022/05/03 04:26:12;;;;;;;;;51.00;38.00;;;;;11.52;61.05;101401.25;5041613;28;45343;-71
2022/05/03 04:28:39;;;;;;;;;52.50;37.25;;;;;11.49;60.45;101390.91;5041762;28;46487;-70
2022/05/03 04:31:05;;;;;;;;;51.25;37.50;;;;;11.49;61.96;101406.53;5039115;28;45292;-72
2022/05/03 04:33:31;;;;;;;;;50.00;34.75;;;;;11.46;60.89;101402.25;5041393;28;45343;-75
2022/05/03 04:35:57;;;;;;;;;53.25;38.50;;;;;11.44;61.19;101409.22;5040350;28;45395;-72
2022/05/03 04:38:22;;;;;;;;;44.50;36.50;;;;;11.42;61.40;101402.34;5039783;28;46499;-73
2022/05/03 04:40:48;;;;;;;;;46.00;36.00;;;;;11.37;62.16;101407.63;5041134;28;45272;-74
2022/05/03 04:43:13;;;;;;;;;42.50;36.25;;;;;11.34;62.09;101401.63;5041344;28;45346;-74
2022/05/03 04:45:38;;;;;;;;;45.50;36.50;;;;;11.34;61.45;101407.69;5041014;28;45295;-74
2022/05/03 04:48:04;;;;;;;;;53.75;40.75;;;;;11.33;61.42;101410.31;5041048;28;45335;-75
2022/05/03 04:50:30;;;;;;;;;51.25;33.25;;;;;11.30;62.12;101403.44;5040285;28;45343;-75
2022/05/03 04:52:56;;;;;;;;;47.25;37.25;;;;;11.27;63.13;101406.97;5041336;28;45256;-71
2022/05/03 04:55:23;;;;;;;;;52.75;36.00;;;;;11.21;62.11;101406.19;5043446;28;45492;-71
2022/05/03 04:57:49;;;;;;;;;48.75;38.00;;;;;11.16;62.92;101402.84;5050499;28;46167;-79
2022/05/03 05:00:15;;;;;;;;;42.50;28.25;;;;;11.12;62.96;101407.25;5040892;28;45757;-78
2022/05/03 05:02:40;;;;;;;;;46.50;35.25;;;;;11.15;62.01;101409.78;5041187;28;45311;-69
2022/05/03 05:05:06;;;;;;;;;44.50;35.25;;;;;11.18;62.89;101414.06;5040599;28;45589;-68
2022/05/03 05:07:31;;;;;;;;;49.50;35.75;;;;;11.17;63.41;101423.63;5040958;28;46383;-67
2022/05/03 05:12:40;;;;;;;;;50.00;39.50;;;;;11.22;63.89;101421.81;5052067;28;46462;-69
2022/05/03 05:15:06;;;;;;;;;50.25;38.75;;;;;11.24;63.26;101421.78;5048468;28;45465;-70
2022/05/03 05:17:34;;;;;;;;;50.75;38.00;;;;;11.28;62.57;101421.69;5047618;28;45445;-69
2022/05/03 05:20:00;;;;;;;;;55.75;39.00;;;;;11.33;63.53;101418.97;5040020;28;45438;-68
2022/05/03 05:22:25;;;;;;;;;43.50;32.75;;;;;11.39;62.43;101421.44;5046897;28;45391;-70
2022/05/03 05:24:51;;;;;;;;;37.50;28.25;;;;;11.44;62.12;101418.78;5049244;28;46936;-71
2022/05/03 05:27:16;;;;;;;;;55.25;38.75;;;;;11.51;62.08;101435.97;5048154;28;46258;-76
2022/05/03 05:29:42;;;;;;;;;47.75;38.00;;;;;11.48;62.42;101423.03;5048694;28;45367;-71
2022/05/03 05:32:08;;;;;;;;;50.00;37.25;;;;;11.54;62.58;101428.09;5050204;28;45299;-70
2022/05/03 05:34:33;;;;;;;;;49.00;36.25;;;;;11.56;62.96;101437.59;5048364;28;45545;-70
2022/05/03 05:36:58;;;;;;;;;52.25;40.00;;;;;11.59;61.97;101431.47;5049095;28;46358;-71
2022/05/03 05:39:25;;;;;;;;;58.00;42.00;;;;;11.59;62.15;101429.72;5040485;28;45204;-69
2022/05/03 05:41:55;;;;;;;;;50.75;40.75;;;;;11.62;62.22;101434.03;5044100;28;45339;-75
2022/05/03 05:44:21;;;;;;;;;47.50;38.00;;;;;11.64;62.05;101424.44;5045146;28;45476;-76
2022/05/03 05:46:46;;;;;;;;;47.50;40.00;;;;;11.66;63.02;101438.28;5047878;28;45613;-76
2022/05/03 05:49:11;;;;;;;;;53.25;37.25;;;;;11.73;62.61;101437.25;5047900;28;45429;-80
2022/05/03 05:51:37;;;;;;;;;56.50;42.00;;;;;11.74;62.14;101438.09;5040468;28;45283;-84
2022/05/03 05:54:02;;;;;;;;;47.50;35.25;;;;;11.79;62.38;101436.28;5040139;28;45524;-81
2022/05/03 05:56:28;;;;;;;;;39.50;29.75;;;;;11.79;61.57;101434.53;5039708;28;46555;-81
2022/05/03 05:58:53;;;;;;;;;57.50;40.50;;;;;11.82;61.68;101442.31;5039912;28;45858;-80
2022/05/03 06:01:26;;;;;;;;;50.50;38.00;;;;;11.89;62.53;101448.25;5039896;28;45419;-79
2022/05/03 06:03:52;;;;;;;;;53.50;44.50;;;;;11.93;61.67;101449.03;5038255;28;45564;-78
2022/05/03 06:06:17;;;;;;;;;52.25;37.00;;;;;11.93;61.59;101443.81;5044956;28;45381;-78
2022/05/03 06:08:42;;;;;;;;;53.50;39.00;;;;;11.93;61.60;101439.47;5039679;28;45357;-79
2022/05/03 06:11:09;;;;;;;;;50.50;37.00;;;;;11.99;61.68;101448.88;5047156;28;45330;-81
2022/05/03 06:13:35;;;;;;;;;55.75;40.00;;;;;12.00;61.67;101455.81;5047924;28;45406;-81
2022/05/03 06:16:08;;;;;;;;;54.50;41.75;;;;;12.01;61.68;101453.16;5047583;28;45407;-83
2022/05/03 06:18:33;;;;;;;;;55.00;42.00;;;;;12.04;61.39;101460.94;5044599;28;45960;-82
2022/05/03 06:21:00;;;;;;;;;46.00;39.50;;;;;12.07;61.45;101450.44;5046097;28;45534;-80
2022/05/03 06:23:25;;;;;;;;;52.00;40.00;;;;;12.08;61.40;101451.28;5049182;28;45536;-79
2022/05/03 06:25:51;;;;;;;;;43.25;31.00;;;;;12.09;61.32;101447.78;5047794;28;45515;-80
2022/05/03 06:28:16;;;;;;;;;52.75;41.00;;;;;12.11;60.97;101448.63;5048051;28;45448;-78
2022/05/03 06:30:42;;;;;;;;;54.50;42.00;;;;;12.15;60.81;101456.31;5047474;28;45380;-77
2022/05/03 06:33:08;;;;;;;;;61.75;39.00;;;;;12.16;61.03;101455.44;5049982;28;45507;-77
2022/05/03 06:35:33;;;;;;;;;52.25;38.00;;;;;12.18;60.59;101456.25;5048758;28;47046;-80
2022/05/03 06:37:59;;;;;;;;;56.00;38.25;;;;;12.19;60.71;101462.31;5038912;28;45495;-79
2022/05/03 06:40:24;;;;;;;;;50.25;37.50;;;;;12.17;61.00;101477.13;5039340;28;45323;-79
2022/05/03 06:42:49;;;;;;;;;50.50;35.50;;;;;12.15;60.80;101468.50;5039341;28;45477;-79
2022/05/03 06:45:15;;;;;;;;;50.25;39.25;;;;;12.07;61.02;101473.88;5039281;28;45327;-80
2022/05/03 06:47:40;;;;;;;;;51.75;37.25;;;;;12.07;60.99;101473.88;5039307;28;45329;-81
2022/05/03 06:50:07;;;;;;;;;48.00;37.50;;;;;12.15;60.73;101473.72;5039319;28;45498;-78
2022/05/03 06:52:33;;;;;;;;;50.25;39.00;;;;;12.21;60.80;101465.75;5044005;28;45335;-78
2022/05/03 06:54:59;;;;;;;;;40.50;31.50;;;;;12.27;60.76;101463.03;5045208;28;45226;-78
2022/05/03 06:57:24;;;;;;;;;51.25;39.25;;;;;12.32;61.03;101474.19;5046510;28;45287;-78
2022/05/03 06:59:50;;;;;;;;;47.75;37.25;;;;;12.38;60.63;101474.03;5046574;28;45454;-77
2022/05/03 07:02:15;;;;;;;;;40.50;36.00;;;;;12.43;60.34;101482.63;5048279;28;45425;-77
2022/05/03 07:04:43;;;;;;;;;51.50;39.25;;;;;12.47;60.22;101468.63;5047594;28;45519;-77
2022/05/03 07:07:09;;;;;;;;;57.75;43.50;;;;;12.47;60.17;101479.06;5045098;28;45918;-77
2022/05/03 07:09:34;;;;;;;;;48.25;37.00;;;;;12.46;60.27;101466.91;5047265;28;45426;-77
2022/05/03 07:12:00;;;;;;;;;46.00;36.50;;;;;12.57;60.06;101473.59;5044340;28;45472;-77
2022/05/03 07:14:25;;;;;;;;;49.25;36.75;;;;;12.58;60.19;101475.31;5044556;28;46279;-78
2022/05/03 07:16:50;;;;;;;;;38.25;32.25;;;;;12.51;60.27;101482.44;5038750;28;45309;-76
2022/05/03 07:24:57;;;;;;;;;51.75;40.00;;;;;12.65;59.96;101484.72;5025977;28;45587;-75
2022/05/03 07:27:23;;;;;;;;;36.25;31.00;;;;;12.73;59.77;101475.81;5038681;28;45390;-73
2022/05/03 07:29:48;;;;;;;;;32.00;24.75;;;;;12.81;59.20;101475.63;5050575;28;45448;-73
2022/05/03 07:32:13;;;;;;;;;42.25;34.25;;;;;12.88;59.34;101485.00;5037266;28;45575;-80
2022/05/03 07:34:38;;;;;;;;;53.25;38.50;;;;;12.99;59.49;101487.34;5037134;28;46984;-80
2022/05/03 07:37:04;;;;;;;;;50.25;38.00;;;;;13.09;58.55;101488.84;5038596;28;45170;-78
2022/05/03 07:39:30;;;;;;;;;45.75;37.00;;;;;13.14;58.75;101483.47;5038604;28;45214;-78
2022/05/03 07:41:57;;;;;;;;;53.00;39.25;;;;;13.26;58.46;101485.81;5038598;28;45641;-75
2022/05/03 07:44:22;;;;;;;;;49.75;37.75;;;;;13.38;58.33;101486.31;5038548;28;45498;-81
2022/05/03 07:46:48;;;;;;;;;46.25;37.00;;;;;13.37;58.14;101488.97;5038083;28;45213;-78
2022/05/03 07:49:13;;;;;;;;;45.25;34.75;;;;;13.44;58.07;101494.91;5036752;28;45453;-81
2022/05/03 07:51:42;;;;;;;;;48.75;36.00;;;;;13.49;57.79;101501.72;5042165;28;45599;-80
2022/05/03 07:54:09;;;;;;;;;52.75;39.75;;;;;13.58;58.07;101483.16;5054919;28;45425;-78
2022/05/03 07:56:35;;;;;;;;;43.25;36.50;;;;;13.77;57.06;101493.94;5029242;28;45821;-80
2022/05/03 07:59:00;;;;;;;;;53.00;36.75;;;;;14.00;57.66;101493.28;5041566;28;45248;-79
2022/05/03 08:01:25;;;;;;;;;50.50;39.00;;;;;14.24;55.62;101500.41;5040800;28;45534;-80
2022/05/03 08:03:51;;;;;;;;;45.25;36.25;;;;;14.54;56.42;101503.00;5023591;28;47506;-79
2022/05/03 08:06:16;;;;;;;;;53.75;38.25;;;;;14.83;56.01;101497.69;5041813;28;45289;-82
2022/05/03 08:08:41;;;;;;;;;42.75;35.00;;;;;15.08;54.97;101495.09;5042299;28;45292;-82
2022/05/03 08:11:07;;;;;;;;;48.25;36.75;;;;;15.30;54.41;101494.38;5054305;28;45196;-80
2022/05/03 08:13:32;;;;;;;;;47.50;34.75;;;;;15.57;54.25;101497.75;5045464;28;48496;-80
2022/05/03 08:15:57;;;;;;;;;47.00;35.00;;;;;15.77;53.15;101493.53;5042958;28;45194;-80
2022/05/03 08:18:23;;;;;;;;;45.50;34.50;;;;;15.90;53.05;101490.47;5040718;28;45255;-81
2022/05/03 08:20:48;;;;;;;;;44.00;35.25;;;;;15.96;52.62;101493.69;5041598;28;45440;-81
2022/05/03 08:23:14;;;;;;;;;45.75;34.25;;;;;16.06;51.37;101500.31;5041303;28;45343;-83
2022/05/03 08:25:39;;;;;;;;;43.00;36.00;;;;;16.09;51.82;101496.72;5042453;28;45482;-79
2022/05/03 08:28:05;;;;;;;;;40.75;32.50;;;;;16.16;51.29;101494.72;5041484;28;45280;-76
2022/05/03 08:30:31;;;;;;;;;37.75;31.50;;;;;16.25;51.09;101486.50;5041530;28;45519;-77
2022/05/03 08:32:56;;;;;;;;;43.00;34.75;;;;;16.41;50.29;101487.56;5041232;28;46559;-77
2022/05/03 08:35:24;;;;;;;;;44.00;32.50;;;;;16.58;50.56;101482.50;5041248;28;45501;-76
2022/05/03 08:43:18;;;;;;;;;40.75;31.00;;;;;16.97;48.72;101497.56;5041166;28;45814;-85
2022/05/03 08:45:49;;;;;;;;;44.50;34.75;;;;;17.08;48.97;101494.50;5041120;28;45316;-84
2022/05/03 08:48:16;;;;;;;;;43.00;34.00;;;;;17.21;48.09;101496.53;5041536;28;45347;-80
2022/05/03 08:50:42;;;;;;;;;36.00;33.25;;;;;17.30;47.82;101493.53;5040705;28;45458;-79
2022/05/03 08:53:10;;;;;;;;;46.50;35.00;;;;;17.42;48.67;101497.41;5041166;28;45622;-78
2022/05/03 08:55:39;;;;;;;;;44.75;34.25;;;;;17.52;47.04;101495.19;5041125;28;45410;-81
2022/05/03 08:58:04;;;;;;;;;38.00;33.50;;;;;17.61;47.49;101497.41;5040579;28;45387;-77
2022/05/03 09:00:32;;;;;;;;;39.50;32.75;;;;;17.63;46.89;101491.19;5039628;28;45305;-81
2022/05/03 09:02:57;;;;;;;;;28.00;23.00;;;;;17.72;46.58;101487.31;5053425;28;45453;-81
2022/05/03 09:05:24;;;;;;;;;33.25;31.25;;;;;17.73;46.35;101491.66;5040809;28;45350;-82
2022/05/03 09:07:54;;;;;;;;;34.75;32.50;;;;;17.83;45.85;101494.72;5040516;28;45459;-82
2022/05/03 09:10:22;;;;;;;;;41.25;33.75;;;;;17.77;44.86;101492.34;5033728;28;45434;-78
2022/05/03 09:12:49;;;;;;;;;39.25;30.00;;;;;17.78;46.40;101492.28;5043771;28;46422;-81
2022/05/03 09:15:15;;;;;;;;;37.50;29.50;;;;;17.80;46.04;101486.94;5038762;28;45976;-77
2022/05/03 09:17:45;;;;;;;;;33.25;29.25;;;;;17.95;45.73;101496.78;5038329;28;45379;-78
2022/05/03 09:26:16;;;;;;;;;38.25;31.00;;;;;18.17;45.83;101486.09;5040864;28;45707;-78
2022/05/03 09:28:47;;;;;;;;;44.00;32.50;;;;;18.39;44.89;101486.78;5039938;28;45367;-76
2022/05/03 09:31:13;;;;;;;;;36.75;31.00;;;;;18.55;44.67;101487.75;5032672;28;45501;-76
2022/05/03 09:33:39;;;;;;;;;32.00;25.50;;;;;18.71;44.09;101487.91;5040247;28;45438;-75
2022/05/03 09:36:10;;;;;;;;;32.25;30.00;;;;;18.83;43.66;101482.03;5040473;28;45467;-78
2022/05/03 09:38:50;;;;;;;;;29.50;24.00;;;;;19.00;43.93;101475.88;5041581;28;45357;-79
2022/05/03 09:41:16;;;;;;;;;24.50;23.50;;;;;19.10;41.46;101498.22;5040436;28;45446;-80
2022/05/03 09:44:01;;;;;;;;;32.25;26.25;;;;;19.18;41.78;101486.41;5039896;28;45450;-74
2022/05/03 09:46:26;;;;;;;;;28.25;24.50;;;;;19.20;39.82;101481.91;5040219;28;45169;-76
2022/05/03 09:48:54;;;;;;;;;37.50;32.00;;;;;19.22;42.33;101486.22;5041220;28;45383;-83
2022/05/03 09:51:21;;;;;;;;;25.50;19.50;;;;;19.22;40.69;101490.59;5049940;28;46308;-81
2022/05/03 09:53:57;;;;;;;;;33.00;27.50;;;;;19.26;41.46;101485.09;5046401;28;45408;-78
2022/05/03 09:56:27;;;;;;;;;25.25;18.75;;;;;19.27;41.05;101478.91;5045172;28;45854;-78
2022/05/03 09:59:03;;;;;;;;;21.75;21.75;;;;;19.23;38.60;101487.91;5046154;28;45411;-78
2022/05/03 10:01:30;;;;;;;;;27.00;25.00;;;;;19.26;39.58;101471.09;5039455;28;45439;-77
2022/05/03 10:03:56;;;;;;;;;26.50;22.75;;;;;19.29;39.31;101476.19;5046710;28;45469;-76
2022/05/03 10:06:23;;;;;;;;;15.75;15.25;;;;;19.37;40.61;101474.84;5047195;28;45953;-76
2022/05/03 10:08:49;;;;;;;;;30.75;26.00;;;;;19.42;39.83;101471.97;5046934;28;45683;-75
2022/05/03 10:11:18;;;;;;;;;29.50;20.50;;;;;19.41;39.65;101472.91;5047085;28;45550;-76
2022/05/03 10:13:44;;;;;;;;;23.25;21.75;;;;;19.38;39.96;101473.06;5043796;28;45499;-77
2022/05/03 10:21:50;;;;;;;;;22.75;17.00;;;;;19.35;40.40;101466.16;5041614;28;45382;-83
2022/05/03 10:24:16;;;;;;;;;28.50;19.50;;;;;19.19;39.00;101469.69;5039294;28;45637;-86
2022/05/03 10:26:58;;;;;;;;;25.25;22.75;;;;;19.23;39.98;101460.72;5039673;28;45415;-80
2022/05/03 10:29:25;;;;;;;;;27.00;23.75;;;;;19.24;40.14;101457.13;5039294;28;45279;-80
2022/05/03 10:32:05;;;;;;;;;29.00;25.25;;;;;19.34;40.16;101464.47;5037344;28;45533;-81
2022/05/03 10:34:42;;;;;;;;;10.75;10.75;;;;;19.36;39.81;101456.47;5038886;28;46342;-78
2022/05/03 10:37:11;;;;;;;;;23.25;21.25;;;;;19.29;38.61;101470.91;5040424;28;45435;-79
2022/05/03 10:39:46;;;;;;;;;27.00;21.00;;;;;19.27;39.67;101464.88;5039548;28;45345;-81
2022/05/03 10:42:13;;;;;;;;;21.50;19.00;;;;;19.31;39.78;101453.25;5035443;28;45229;-77
2022/05/03 10:44:44;;;;;;;;;25.75;22.75;;;;;19.37;39.41;101461.66;5034031;28;46449;-73
2022/05/03 10:47:12;;;;;;;;;20.00;15.25;;;;;19.43;39.13;101463.16;5038677;28;45473;-75
2022/05/03 10:50:18;;;;;;;;;24.25;18.50;;;;;19.47;39.02;101462.03;5029760;28;45446;-77
2022/05/03 10:53:05;;;;;;;;;29.00;23.00;;;;;19.54;39.62;101457.31;5038704;28;46178;-70
2022/05/03 10:55:35;;;;;;;;;24.75;24.75;;;;;19.52;39.40;101454.75;5041908;28;47164;-77
2022/05/03 10:58:33;;;;;;;;;27.25;20.25;;;;;19.66;39.60;101454.03;5046734;28;45755;-73
2022/05/03 11:01:21;;;;;;;;;19.50;17.50;;;;;19.79;39.45;101441.00;5020940;28;45396;-72
2022/05/03 11:03:54;;;;;;;;;18.75;15.00;;;;;19.93;39.75;101441.13;5038436;28;45543;-73
2022/05/03 11:06:19;;;;;;;;;22.50;19.00;;;;;20.02;39.28;101454.66;5038998;28;46252;-83
2022/05/03 11:11:34;;;;;;;;;23.00;22.00;;;;;20.18;39.25;101438.81;5051207;28;45245;-71
2022/05/03 11:13:59;;;;;;;;;16.00;15.50;;;;;20.16;39.62;101438.03;5036338;28;45575;-68
2022/05/03 11:16:26;;;;;;;;;21.75;19.50;;;;;20.23;39.07;101446.50;5038395;28;47162;-73
2022/05/03 11:18:55;;;;;;;;;15.75;14.25;;;;;20.26;38.76;101441.03;5038516;28;45367;-75
2022/05/03 11:21:21;;;;;;;;;19.75;19.00;;;;;20.23;37.55;101442.06;5038612;28;45288;-80
2022/05/03 11:23:48;;;;;;;;;23.50;18.25;;;;;20.17;37.58;101434.47;5038549;28;45543;-78
2022/05/03 11:26:16;;;;;;;;;11.25;10.00;;;;;20.20;37.30;101441.34;5041535;28;46261;-80
2022/05/03 11:28:45;;;;;;;;;12.75;10.50;;;;;20.26;37.09;101433.97;5042389;28;45377;-79
2022/05/03 11:31:11;;;;;;;;;20.00;17.00;;;;;20.22;36.28;101440.34;5042061;28;45304;-81
2022/05/03 11:33:58;;;;;;;;;19.25;16.00;;;;;20.26;36.78;101427.84;5041974;28;45305;-74
2022/05/03 11:36:25;;;;;;;;;17.50;15.50;;;;;20.25;36.93;101426.13;5041883;28;47017;-88
2022/05/03 11:38:52;;;;;;;;;21.00;18.75;;;;;20.20;37.53;101428.16;5042031;28;45367;-78
2022/05/03 11:41:27;;;;;;;;;23.25;16.00;;;;;20.27;36.69;101437.44;5037647;28;45494;-80
2022/05/03 11:43:53;;;;;;;;;17.00;17.00;;;;;20.38;37.02;101428.91;5038804;28;45392;-78
2022/05/03 11:46:20;;;;;;;;;14.00;10.25;;;;;20.45;36.18;101420.59;5040879;28;46543;-82
2022/05/03 11:48:52;;;;;;;;;17.50;11.25;;;;;20.54;36.41;101427.97;5038293;28;45878;-79
2022/05/03 11:57:16;;;;;;;;;18.00;13.00;;;;;20.28;35.79;101413.59;5040876;28;45282;-79
2022/05/03 11:59:42;;;;;;;;;11.25;10.50;;;;;20.32;35.96;101423.03;5036840;28;45910;-84
2022/05/03 12:02:23;;;;;;;;;18.75;16.75;;;;;20.44;35.45;101420.69;5041976;28;45412;-82
2022/05/03 12:05:16;;;;;;;;;14.25;13.25;;;;;20.48;35.59;101414.28;5041617;28;45541;-81
2022/05/03 12:07:50;;;;;;;;;12.50;12.25;;;;;20.56;35.48;101427.88;5042758;28;46342;-85